Time;durP1;ratioP1;P1;durP2;ratioP2;P2;SDS_P1;SDS_P2;PMS_P1;PMS_P2;Temp;Humidity;BMP_temperature;BMP_pressure;BME280_temperature;BME280_humidity;BME280_pressure;Samples;Min_cycle;Max_cycle;Signal;HPM_P1;HPM_P2
2022/10/01 00:00:50;;;;;;;8.38;6.57;;;11.20;99.90;;;;;;5091438;28;20047;-76
2022/10/01 00:03:16;;;;;;;8.98;7.07;;;11.20;99.90;;;;;;5090605;28;20040;-76
2022/10/01 00:05:42;;;;;;;8.82;7.18;;;11.20;99.90;;;;;;5090773;28;20035;-78
2022/10/01 00:08:08;;;;;;;8.45;7.03;;;11.20;99.90;;;;;;5090950;28;20039;-77
2022/10/01 00:10:35;;;;;;;8.93;7.40;;;11.20;99.90;;;;;;5090787;28;20118;-77
2022/10/01 00:13:01;;;;;;;9.00;6.97;;;11.20;99.90;;;;;;5090690;28;20044;-77
2022/10/01 00:15:26;;;;;;;10.35;7.60;;;11.10;99.90;;;;;;5090791;28;20123;-78
2022/10/01 00:17:52;;;;;;;10.00;7.28;;;11.10;99.90;;;;;;5090762;28;20197;-77
2022/10/01 00:20:18;;;;;;;9.95;7.43;;;11.10;99.90;;;;;;5090951;28;20040;-78
2022/10/01 00:22:44;;;;;;;9.63;8.15;;;11.10;99.90;;;;;;5090454;28;20036;-77
2022/10/01 00:25:10;;;;;;;9.02;8.13;;;11.10;99.90;;;;;;5090542;28;20055;-76
2022/10/01 00:27:36;;;;;;;9.05;8.13;;;11.10;99.90;;;;;;5090658;28;20028;-77
2022/10/01 00:30:06;;;;;;;9.63;8.20;;;11.00;99.90;;;;;;5090551;28;20036;-77
2022/10/01 00:32:32;;;;;;;10.02;8.98;;;11.10;99.90;;;;;;5090166;28;20527;-76
2022/10/01 00:35:02;;;;;;;9.60;8.50;;;11.10;99.90;;;;;;5073806;28;20040;-77
2022/10/01 00:37:28;;;;;;;10.65;8.27;;;11.00;99.90;;;;;;5090479;28;20032;-77
2022/10/01 00:39:53;;;;;;;9.40;8.38;;;11.00;99.90;;;;;;5090586;28;20039;-78
2022/10/01 00:42:22;;;;;;;10.20;9.07;;;11.00;99.90;;;;;;5090130;28;20544;-77
2022/10/01 00:44:48;;;;;;;12.38;9.48;;;11.00;99.90;;;;;;5090404;28;20042;-77
2022/10/01 00:47:50;;;;;;;11.95;8.88;;;11.00;99.90;;;;;;5090258;28;20048;-77
2022/10/01 00:50:27;;;;;;;10.82;8.38;;;11.00;99.90;;;;;;5090490;28;20040;-76
2022/10/01 00:52:58;;;;;;;10.38;8.77;;;11.00;99.90;;;;;;5090022;28;20040;-76
2022/10/01 00:55:50;;;;;;;11.65;9.07;;;11.00;99.90;;;;;;5094184;28;20036;-77
2022/10/01 00:58:18;;;;;;;11.80;9.52;;;11.00;99.90;;;;;;5090021;28;20044;-76
2022/10/01 01:00:44;;;;;;;10.88;8.75;;;11.00;99.90;;;;;;5094440;28;20051;-76
2022/10/01 01:03:10;;;;;;;10.35;9.07;;;11.00;99.90;;;;;;5094052;28;20040;-77
2022/10/01 01:05:36;;;;;;;11.32;9.93;;;11.00;99.90;;;;;;5094343;28;20405;-77
2022/10/01 01:08:02;;;;;;;10.57;9.35;;;11.00;99.90;;;;;;5094119;28;20040;-76
2022/10/01 01:11:06;;;;;;;11.73;9.60;;;10.90;99.90;;;;;;5094599;28;20100;-76
2022/10/01 01:13:34;;;;;;;13.07;10.38;;;10.90;99.90;;;;;;5094394;28;20063;-76
2022/10/01 01:16:07;;;;;;;14.13;10.05;;;10.90;99.90;;;;;;5094312;28;20511;-76
2022/10/01 01:19:06;;;;;;;12.73;9.48;;;10.90;99.90;;;;;;5094156;28;20040;-77
2022/10/01 01:21:46;;;;;;;11.93;8.70;;;10.90;99.90;;;;;;5090202;28;20056;-77
2022/10/01 01:24:34;;;;;;;13.55;9.45;;;10.90;99.90;;;;;;5093894;28;20039;-78
2022/10/01 01:27:38;;;;;;;12.90;8.90;;;10.90;99.90;;;;;;5076843;28;20040;-78
2022/10/01 01:30:08;;;;;;;10.27;9.10;;;10.90;99.90;;;;;;5035825;28;20045;-78
2022/10/01 01:32:45;;;;;;;11.43;9.48;;;10.90;99.90;;;;;;5080989;28;20052;-76
2022/10/01 01:35:19;;;;;;;10.70;9.27;;;10.90;99.90;;;;;;5093813;28;20028;-76
2022/10/01 01:37:52;;;;;;;10.40;9.30;;;10.90;99.90;;;;;;5093091;28;20036;-77
2022/10/01 01:40:19;;;;;;;15.83;8.37;;;10.90;99.90;;;;;;5092526;28;20040;-77
2022/10/01 01:42:47;;;;;;;13.35;9.23;;;10.90;99.90;;;;;;5092798;28;20036;-78
2022/10/01 01:45:17;;;;;;;13.80;8.95;;;10.90;99.90;;;;;;5092672;28;20036;-77
2022/10/01 01:47:44;;;;;;;12.35;9.30;;;10.90;99.90;;;;;;5093061;28;20032;-78
2022/10/01 01:50:13;;;;;;;12.68;9.13;;;10.90;99.90;;;;;;5093844;28;20032;-77
2022/10/01 01:52:40;;;;;;;11.27;9.40;;;10.90;99.90;;;;;;5092739;28;20112;-78
2022/10/01 01:55:07;;;;;;;12.10;8.50;;;10.90;99.90;;;;;;5093620;28;20379;-77
2022/10/01 01:57:37;;;;;;;10.52;8.27;;;10.80;99.90;;;;;;5093503;28;20115;-77
2022/10/01 02:00:03;;;;;;;10.20;8.13;;;10.80;99.90;;;;;;5093527;28;20039;-78
2022/10/01 02:02:34;;;;;;;8.82;7.60;;;10.90;99.90;;;;;;5093428;28;20119;-78
2022/10/01 02:05:06;;;;;;;9.18;8.20;;;10.80;99.90;;;;;;5093003;28;20040;-77
2022/10/01 02:07:54;;;;;;;10.35;8.48;;;10.80;99.90;;;;;;5102418;28;20039;-77
2022/10/01 02:10:43;;;;;;;10.55;8.35;;;10.80;99.90;;;;;;5102119;28;20071;-77
2022/10/01 02:13:33;;;;;;;10.60;7.80;;;10.80;99.90;;;;;;5092956;28;20033;-78
2022/10/01 02:16:05;;;;;;;9.07;7.65;;;10.80;99.90;;;;;;5076367;28;20484;-76
2022/10/01 02:18:47;;;;;;;8.15;7.32;;;10.80;99.90;;;;;;5092963;28;20687;-77
2022/10/01 02:21:18;;;;;;;7.18;6.45;;;10.80;99.90;;;;;;5092738;28;20528;-77
2022/10/01 02:23:56;;;;;;;8.95;6.90;;;10.80;99.90;;;;;;5092772;28;20040;-75
2022/10/01 02:26:23;;;;;;;7.53;6.40;;;10.80;99.90;;;;;;5092824;28;20039;-77
2022/10/01 02:28:52;;;;;;;9.65;7.07;;;10.80;99.90;;;;;;5092522;28;20051;-77
2022/10/01 02:31:20;;;;;;;8.52;7.13;;;10.80;99.90;;;;;;5091749;28;20036;-77
2022/10/01 02:33:47;;;;;;;7.28;6.45;;;10.80;99.90;;;;;;5092900;28;20386;-77
2022/10/01 02:36:15;;;;;;;8.85;6.90;;;10.80;99.90;;;;;;5092515;28;20048;-76
2022/10/01 02:38:44;;;;;;;8.30;6.80;;;10.80;99.90;;;;;;5092726;28;20513;-77
2022/10/01 02:41:12;;;;;;;7.35;6.10;;;10.80;99.90;;;;;;5075760;28;20075;-77
2022/10/01 02:43:59;;;;;;;6.85;6.13;;;10.80;99.90;;;;;;5092567;28;20040;-77
2022/10/01 02:46:47;;;;;;;10.02;5.72;;;10.80;99.90;;;;;;5092530;28;20036;-76
2022/10/01 02:49:13;;;;;;;6.35;5.72;;;10.90;99.90;;;;;;5090853;28;20035;-76
2022/10/01 02:51:43;;;;;;;6.85;6.15;;;10.80;99.90;;;;;;5092083;28;20494;-77
2022/10/01 02:54:23;;;;;;;6.85;6.10;;;10.80;99.90;;;;;;5092268;28;20474;-77
2022/10/01 02:59:33;;;;;;;8.65;6.28;;;10.90;99.90;;;;;;5092291;28;20047;-77
2022/10/01 03:01:59;;;;;;;7.53;6.00;;;10.90;99.90;;;;;;5091790;28;20044;-76
2022/10/01 03:04:24;;;;;;;6.40;5.43;;;10.90;99.90;;;;;;5075495;28;20493;-77
2022/10/01 03:06:50;;;;;;;7.43;5.68;;;10.90;99.90;;;;;;5091829;28;20044;-77
2022/10/01 03:09:15;;;;;;;6.32;5.72;;;10.90;99.90;;;;;;5093427;28;20043;-80
2022/10/01 03:11:41;;;;;;;7.72;6.28;;;10.90;99.90;;;;;;5091807;28;20596;-77
2022/10/01 03:14:08;;;;;;;6.10;5.40;;;10.90;99.90;;;;;;5092112;28;20622;-77
2022/10/01 03:16:33;;;;;;;6.30;5.25;;;10.90;99.90;;;;;;5091223;28;20044;-77
2022/10/01 03:18:59;;;;;;;7.07;5.53;;;10.90;99.90;;;;;;5091849;28;20043;-78
2022/10/01 03:21:25;;;;;;;6.35;5.47;;;10.90;99.90;;;;;;5091466;28;20047;-81
2022/10/01 03:23:50;;;;;;;7.13;5.22;;;10.90;99.90;;;;;;5091916;28;20066;-78
2022/10/01 03:26:16;;;;;;;5.88;5.28;;;11.00;99.90;;;;;;5092307;28;20098;-77
2022/10/01 03:28:41;;;;;;;6.15;5.13;;;11.00;99.90;;;;;;5091673;28;20040;-75
2022/10/01 03:31:08;;;;;;;5.43;4.93;;;11.00;99.90;;;;;;5091389;28;20485;-77
2022/10/01 03:33:34;;;;;;;5.95;4.75;;;11.00;99.90;;;;;;5091599;28;20139;-78
2022/10/01 03:36:01;;;;;;;6.30;4.82;;;11.00;99.90;;;;;;5091707;28;20417;-79
2022/10/01 03:38:26;;;;;;;5.72;4.53;;;11.00;99.90;;;;;;5091592;28;20036;-77
2022/10/01 03:40:52;;;;;;;4.80;4.30;;;11.00;99.90;;;;;;5091223;28;20044;-78
2022/10/01 03:43:17;;;;;;;5.03;3.92;;;11.00;99.90;;;;;;5091160;28;20413;-79
2022/10/01 03:45:43;;;;;;;4.90;4.10;;;11.00;99.90;;;;;;5091311;28;20044;-78
2022/10/01 03:48:08;;;;;;;4.70;3.60;;;11.00;99.90;;;;;;5091326;28;20043;-77
2022/10/01 03:50:35;;;;;;;3.58;3.20;;;11.00;99.90;;;;;;5091099;28;20036;-77
2022/10/01 03:53:01;;;;;;;3.28;2.97;;;11.10;99.90;;;;;;5073947;28;20044;-77
2022/10/01 03:55:27;;;;;;;3.72;3.05;;;11.10;99.90;;;;;;5091206;28;20127;-76
2022/10/01 03:57:52;;;;;;;3.60;3.00;;;11.10;99.90;;;;;;5091020;28;20044;-77
2022/10/01 04:00:18;;;;;;;3.10;2.80;;;11.10;99.90;;;;;;5091249;28;20527;-77
2022/10/01 04:02:44;;;;;;;4.63;2.67;;;11.10;99.90;;;;;;5091073;28;20042;-77
2022/10/01 04:05:11;;;;;;;3.53;2.60;;;11.10;99.90;;;;;;5089665;28;20040;-78
2022/10/01 04:07:36;;;;;;;3.03;2.58;;;11.10;99.90;;;;;;5089587;28;20115;-77
2022/10/01 04:10:02;;;;;;;4.82;2.78;;;11.10;99.90;;;;;;5091263;28;20119;-79
2022/10/01 04:12:28;;;;;;;3.70;2.65;;;11.10;99.90;;;;;;5090744;28;20036;-77
2022/10/01 04:14:53;;;;;;;4.85;2.80;;;11.10;99.90;;;;;;5090813;28;20036;-77
2022/10/01 04:17:19;;;;;;;4.10;2.72;;;11.10;99.90;;;;;;5090807;28;20402;-77
2022/10/01 04:19:45;;;;;;;2.90;2.50;;;11.10;99.90;;;;;;5089409;28;20055;-77
2022/10/01 04:22:10;;;;;;;3.83;2.38;;;11.20;99.90;;;;;;5090577;28;20569;-79
2022/10/01 04:24:36;;;;;;;3.47;2.30;;;11.20;99.90;;;;;;5090880;28;20040;-78
2022/10/01 04:27:01;;;;;;;2.75;2.20;;;11.20;99.90;;;;;;5090709;28;20082;-78
2022/10/01 04:29:27;;;;;;;2.60;2.15;;;11.20;99.90;;;;;;5090895;28;20073;-77
2022/10/01 04:31:53;;;;;;;3.20;2.20;;;11.20;99.90;;;;;;5090279;28;20032;-77
2022/10/01 04:34:50;;;;;;;3.50;2.60;;;11.20;99.90;;;;;;5090525;28;20101;-78
2022/10/01 04:37:04;;;;;;;2.53;2.17;;;11.20;99.90;;;;;;5090637;28;20047;-79
2022/10/01 04:39:29;;;;;;;3.30;2.70;;;11.20;99.90;;;;;;5090578;28;20036;-78
2022/10/01 04:41:55;;;;;;;4.22;2.42;;;11.20;99.90;;;;;;5090494;28;20409;-78
2022/10/01 04:44:20;;;;;;;3.85;2.58;;;11.20;99.90;;;;;;5090658;28;20048;-78
2022/10/01 04:46:46;;;;;;;3.00;2.47;;;11.20;99.90;;;;;;5073541;28;20044;-78
2022/10/01 04:49:11;;;;;;;3.22;2.70;;;11.20;99.90;;;;;;5090489;28;20459;-77
2022/10/01 04:51:37;;;;;;;3.67;2.50;;;11.30;99.90;;;;;;5090142;28;20040;-78
2022/10/01 04:54:02;;;;;;;3.20;2.90;;;11.30;99.90;;;;;;5090822;28;20036;-78
2022/10/01 04:56:28;;;;;;;3.40;2.83;;;11.30;99.90;;;;;;5074842;28;20044;-76
2022/10/01 04:58:53;;;;;;;4.28;2.60;;;11.30;99.90;;;;;;5111090;28;20440;-77
2022/10/01 05:01:19;;;;;;;3.92;2.80;;;11.30;99.90;;;;;;5083559;28;20040;-78
2022/10/01 05:03:46;;;;;;;3.70;2.75;;;11.30;99.90;;;;;;5090200;28;20040;-77
2022/10/01 05:06:11;;;;;;;3.28;2.97;;;11.30;99.90;;;;;;5073256;28;20055;-78
2022/10/01 05:08:37;;;;;;;3.20;2.90;;;11.30;99.90;;;;;;5090393;28;20413;-80
2022/10/01 05:11:03;;;;;;;3.97;3.15;;;11.40;99.90;;;;;;5090273;28;20043;-78
2022/10/01 05:13:30;;;;;;;3.30;2.92;;;11.40;99.90;;;;;;5091330;28;20051;-77
2022/10/01 05:15:56;;;;;;;4.07;3.00;;;11.30;99.90;;;;;;5090222;28;20048;-78
2022/10/01 05:18:21;;;;;;;4.28;2.97;;;11.40;99.90;;;;;;5090356;28;20055;-77
2022/10/01 05:20:47;;;;;;;3.80;3.30;;;11.30;99.90;;;;;;5091567;28;20043;-78
2022/10/01 05:23:12;;;;;;;3.22;2.83;;;11.30;99.90;;;;;;5089789;28;20118;-78
2022/10/01 05:25:38;;;;;;;4.05;3.20;;;11.30;99.90;;;;;;5090143;28;20062;-78
2022/10/01 05:28:04;;;;;;;3.58;3.05;;;11.30;99.90;;;;;;5090234;28;20442;-77
2022/10/01 05:30:30;;;;;;;4.43;3.40;;;11.40;99.90;;;;;;5089987;28;20128;-78
2022/10/01 05:32:58;;;;;;;3.78;3.25;;;11.40;99.90;;;;;;5089745;28;20059;-78
2022/10/01 05:35:24;;;;;;;4.85;3.72;;;11.40;99.90;;;;;;5073137;28;20048;-78
2022/10/01 05:37:54;;;;;;;4.45;3.63;;;11.40;99.90;;;;;;5089917;28;20058;-77
2022/10/01 05:40:20;;;;;;;5.65;4.38;;;11.50;99.90;;;;;;5092129;28;20450;-78
2022/10/01 05:42:46;;;;;;;4.82;3.72;;;11.40;99.90;;;;;;5093249;28;20520;-77
2022/10/01 05:45:12;;;;;;;6.22;3.88;;;11.50;99.90;;;;;;5093483;28;20119;-79
2022/10/01 05:47:40;;;;;;;4.50;4.05;;;11.50;99.90;;;;;;5093685;28;20472;-78
2022/10/01 05:50:06;;;;;;;5.97;5.05;;;11.50;99.90;;;;;;5076603;28;20039;-79
2022/10/01 05:52:31;;;;;;;5.68;4.40;;;11.50;99.90;;;;;;5093106;28;20047;-78
2022/10/01 05:54:58;;;;;;;6.28;4.45;;;11.50;99.90;;;;;;5093837;28;20397;-78
2022/10/01 05:57:23;;;;;;;6.20;4.88;;;11.50;99.90;;;;;;5076351;28;20158;-78
2022/10/01 05:59:50;;;;;;;7.57;4.70;;;11.60;99.90;;;;;;5092998;28;20055;-78
2022/10/01 06:02:15;;;;;;;5.88;5.00;;;11.60;99.90;;;;;;5092442;28;20523;-78
2022/10/01 06:04:41;;;;;;;6.57;5.13;;;11.60;99.90;;;;;;5093889;28;20047;-78
2022/10/01 06:07:06;;;;;;;8.30;5.50;;;11.60;99.90;;;;;;5076426;28;20054;-78
2022/10/01 06:09:32;;;;;;;9.30;5.70;;;11.70;99.90;;;;;;5093111;28;20443;-78
2022/10/01 06:11:57;;;;;;;8.65;5.72;;;11.60;99.90;;;;;;5092877;28;20489;-78
2022/10/01 06:14:23;;;;;;;5.90;5.32;;;11.60;99.90;;;;;;5075999;28;20059;-78
2022/10/01 06:16:53;;;;;;;8.15;5.95;;;11.60;99.90;;;;;;5093229;28;20089;-78
2022/10/01 06:19:18;;;;;;;9.82;5.90;;;11.60;99.90;;;;;;5092985;28;20051;-77
2022/10/01 06:21:44;;;;;;;7.85;6.55;;;11.70;99.90;;;;;;5092679;28;20057;-78
2022/10/01 06:24:09;;;;;;;8.98;6.72;;;11.70;99.90;;;;;;5092878;28;20463;-78
2022/10/01 06:26:35;;;;;;;7.50;6.30;;;11.70;99.90;;;;;;5092716;28;20032;-79
2022/10/01 06:29:02;;;;;;;7.60;6.43;;;11.70;99.90;;;;;;5092805;28;20043;-78
2022/10/01 06:31:28;;;;;;;9.45;6.80;;;11.80;99.90;;;;;;5092444;28;20043;-78
2022/10/01 06:33:53;;;;;;;11.82;7.15;;;11.90;99.90;;;;;;5092607;28;20058;-78
2022/10/01 06:36:19;;;;;;;9.70;6.90;;;12.00;99.90;;;;;;5092562;28;20032;-78
2022/10/01 06:38:48;;;;;;;15.15;7.43;;;12.00;99.90;;;;;;5092949;28;20093;-78
2022/10/01 06:41:13;;;;;;;13.82;7.82;;;12.00;99.90;;;;;;5092427;28;20485;-78
2022/10/01 06:43:39;;;;;;;11.57;8.27;;;12.00;99.90;;;;;;5075800;28;20127;-79
2022/10/01 06:46:04;;;;;;;13.13;8.00;;;12.00;99.90;;;;;;5092344;28;20123;-79
2022/10/01 06:48:31;;;;;;;11.07;7.68;;;12.00;99.90;;;;;;5092616;28;20044;-78
2022/10/01 06:50:57;;;;;;;9.98;7.43;;;12.00;99.90;;;;;;5091417;28;20457;-78
2022/10/01 06:53:23;;;;;;;11.18;8.48;;;12.10;99.90;;;;;;5092080;28;20089;-78
2022/10/01 06:55:49;;;;;;;11.57;8.55;;;12.10;99.90;;;;;;5092111;28;20068;-77
2022/10/01 06:58:17;;;;;;;13.25;9.05;;;12.20;99.90;;;;;;5092029;28;20505;-77
2022/10/01 07:00:43;;;;;;;11.93;8.82;;;12.20;99.90;;;;;;5092187;28;20044;-78
2022/10/01 07:03:15;;;;;;;13.10;8.23;;;12.30;99.90;;;;;;5074913;28;20032;-77
2022/10/01 07:05:40;;;;;;;13.00;8.75;;;12.50;99.90;;;;;;5091865;28;20043;-77
2022/10/01 07:08:07;;;;;;;17.08;8.77;;;12.60;99.90;;;;;;5092082;28;20032;-77
2022/10/01 07:10:34;;;;;;;15.50;8.52;;;12.70;99.90;;;;;;5091854;28;20032;-78
2022/10/01 07:13:15;;;;;;;12.57;8.15;;;12.80;99.90;;;;;;5091611;28;20035;-77
2022/10/01 07:15:42;;;;;;;13.02;8.48;;;12.90;99.90;;;;;;5075194;28;20123;-78
2022/10/01 07:18:08;;;;;;;13.38;7.55;;;13.00;99.90;;;;;;5106764;28;20212;-78
2022/10/01 07:20:38;;;;;;;11.52;7.05;;;12.90;99.90;;;;;;5112417;28;20051;-78
2022/10/01 07:23:04;;;;;;;13.85;6.93;;;12.90;99.90;;;;;;5095536;28;20043;-78
2022/10/01 07:25:30;;;;;;;10.80;6.70;;;12.90;99.90;;;;;;5091438;28;20497;-77
2022/10/01 07:27:58;;;;;;;12.10;6.70;;;12.80;99.90;;;;;;5091928;28;20040;-78
2022/10/01 07:30:24;;;;;;;10.43;5.93;;;12.80;99.90;;;;;;5091502;28;20066;-78
2022/10/01 07:32:50;;;;;;;12.30;5.65;;;12.80;99.90;;;;;;5091577;28;20396;-78
2022/10/01 07:35:16;;;;;;;13.63;4.90;;;12.70;99.90;;;;;;5091413;28;20036;-77
2022/10/01 07:37:41;;;;;;;8.57;4.30;;;12.60;99.90;;;;;;5091584;28;20044;-77
2022/10/01 07:40:07;;;;;;;10.10;4.85;;;12.60;99.90;;;;;;5091374;28;20429;-77
2022/10/01 07:42:34;;;;;;;11.23;4.72;;;12.60;99.90;;;;;;5074123;28;20036;-77
2022/10/01 07:45:00;;;;;;;8.27;4.53;;;12.80;99.90;;;;;;5091723;28;20393;-77
2022/10/01 07:47:26;;;;;;;9.02;4.13;;;12.90;99.90;;;;;;5091172;28;20051;-77
2022/10/01 07:49:51;;;;;;;7.22;4.15;;;13.10;99.90;;;;;;5091196;28;20032;-77
2022/10/01 07:52:17;;;;;;;8.98;3.85;;;13.20;99.90;;;;;;5090745;28;20401;-78
2022/10/01 07:54:42;;;;;;;8.93;3.67;;;13.30;99.90;;;;;;5091048;28;20123;-77
2022/10/01 07:57:08;;;;;;;11.55;3.83;;;13.50;99.90;;;;;;5091576;28;20434;-78
2022/10/01 07:59:33;;;;;;;7.40;3.50;;;13.60;99.90;;;;;;5091285;28;20096;-78
2022/10/01 08:01:59;;;;;;;7.57;3.50;;;13.70;99.90;;;;;;5090764;28;20097;-78
2022/10/01 08:07:09;;;;;;;;;;;14.10;99.90;;;;;;5105769;28;20036;-78
2022/10/01 08:09:34;;;;;;;9.13;3.10;;;14.10;99.90;;;;;;5090965;28;19915;-78
2022/10/01 08:12:01;;;;;;;11.35;3.33;;;14.10;99.90;;;;;;5090634;28;20421;-78
2022/10/01 08:14:27;;;;;;;8.80;3.00;;;14.20;99.90;;;;;;5090694;28;20052;-78
2022/10/01 08:16:54;;;;;;;6.40;2.70;;;14.30;99.90;;;;;;5090854;28;20061;-77
2022/10/01 08:19:20;;;;;;;7.82;2.78;;;14.30;99.90;;;;;;5090708;28;20055;-78
2022/10/01 08:21:45;;;;;;;6.85;2.45;;;14.30;99.90;;;;;;5090793;28;20154;-78
2022/10/01 08:24:11;;;;;;;9.80;2.33;;;14.40;99.90;;;;;;5090568;28;20036;-78
2022/10/01 08:26:37;;;;;;;9.80;2.22;;;14.40;99.90;;;;;;5090607;28;20039;-77
2022/10/01 08:29:03;;;;;;;8.25;2.20;;;14.40;99.90;;;;;;5090554;28;20042;-78
2022/10/01 08:31:28;;;;;;;8.77;2.60;;;14.50;99.90;;;;;;5090248;28;20405;-77
2022/10/01 08:33:55;;;;;;;8.63;2.50;;;14.60;99.90;;;;;;5091529;28;20040;-77
2022/10/01 08:36:21;;;;;;;10.18;2.45;;;14.60;99.90;;;;;;5089502;28;20043;-77
2022/10/01 08:38:47;;;;;;;8.57;2.10;;;14.70;99.90;;;;;;5090589;28;20040;-77
2022/10/01 08:41:48;;;;;;;11.88;2.28;;;14.80;99.90;;;;;;5090532;28;20047;-77
2022/10/01 08:44:26;;;;;;;7.22;2.00;;;14.90;99.90;;;;;;5060949;28;20063;-77
2022/10/01 08:46:56;;;;;;;10.38;2.10;;;15.10;99.90;;;;;;5090480;28;20044;-77
2022/10/01 08:49:24;;;;;;;11.13;2.22;;;15.20;99.90;;;;;;5091843;28;20115;-77
2022/10/01 08:51:56;;;;;;;13.57;2.60;;;15.40;99.90;;;;;;5090026;28;20057;-77
2022/10/01 08:54:49;;;;;;;17.27;2.83;;;15.40;99.90;;;;;;5090262;28;20569;-77
2022/10/01 08:57:19;;;;;;;15.88;2.63;;;15.40;99.90;;;;;;5088876;28;20051;-77
2022/10/01 08:59:49;;;;;;;14.55;2.50;;;15.60;99.90;;;;;;5072309;28;20543;-77
2022/10/01 09:02:53;;;;;;;19.50;2.83;;;15.70;99.90;;;;;;5090164;28;20047;-77
2022/10/01 09:05:46;;;;;;;7.32;1.90;;;15.80;99.90;;;;;;5032300;28;20037;-77
2022/10/01 09:08:43;;;;;;;13.32;2.88;;;15.70;99.90;;;;;;5088997;28;20054;-77
2022/10/01 09:11:28;;;;;;;10.73;2.63;;;15.70;99.90;;;;;;5090146;28;20417;-78
2022/10/01 09:14:18;;;;;;;12.82;2.83;;;15.60;99.90;;;;;;5090133;28;20405;-77
2022/10/01 09:17:09;;;;;;;15.98;2.67;;;15.60;99.90;;;;;;5077570;28;20491;-77
2022/10/01 09:20:00;;;;;;;13.93;2.55;;;15.50;99.90;;;;;;5094001;28;20047;-77
2022/10/01 09:22:26;;;;;;;13.55;2.50;;;15.50;99.90;;;;;;5093770;28;20040;-78
2022/10/01 09:25:08;;;;;;;11.98;2.88;;;15.60;99.90;;;;;;5094029;28;20123;-77
2022/10/01 09:27:37;;;;;;;10.73;2.70;;;15.70;99.90;;;;;;5093901;28;20443;-77
2022/10/01 09:30:02;;;;;;;14.65;2.60;;;15.70;99.90;;;;;;5094139;28;20374;-78
2022/10/01 09:32:37;;;;;;;10.43;2.50;;;15.70;99.90;;;;;;5093561;28;20085;-77
2022/10/01 09:35:20;;;;;;;13.07;2.63;;;15.60;99.90;;;;;;5094259;28;20040;-78
2022/10/01 09:37:57;;;;;;;11.55;2.42;;;15.50;99.90;;;;;;5093297;28;20074;-77
2022/10/01 09:40:31;;;;;;;11.70;2.50;;;15.50;99.90;;;;;;5076777;28;20097;-78
2022/10/01 09:42:57;;;;;;;9.98;2.53;;;15.60;99.90;;;;;;5097930;28;20036;-77
2022/10/01 09:45:23;;;;;;;9.20;2.10;;;15.90;99.90;;;;;;5114056;28;20050;-77
2022/10/01 09:47:53;;;;;;;13.02;2.20;;;16.10;99.90;;;;;;5103830;28;20612;-77
2022/10/01 09:50:33;;;;;;;9.80;1.85;;;16.30;99.90;;;;;;5076581;28;20040;-77
2022/10/01 09:52:59;;;;;;;5.90;1.55;;;16.20;99.90;;;;;;5093165;28;20636;-79
2022/10/01 09:55:41;;;;;;;7.43;1.55;;;16.20;99.90;;;;;;5093719;28;20390;-78
2022/10/01 09:58:17;;;;;;;9.88;1.60;;;16.10;99.90;;;;;;5076794;28;20034;-78
2022/10/01 10:00:43;;;;;;;7.97;1.60;;;15.90;99.90;;;;;;5100974;28;20039;-78
2022/10/01 10:03:09;;;;;;;7.82;1.40;;;15.60;99.90;;;;;;5113504;28;20044;-78
2022/10/01 10:05:48;;;;;;;8.38;1.42;;;15.40;99.90;;;;;;5094243;28;20509;-78
2022/10/01 10:08:34;;;;;;;7.00;1.40;;;15.10;99.90;;;;;;5102068;28;20116;-79
2022/10/01 10:11:04;;;;;;;10.55;1.85;;;14.80;99.90;;;;;;5093468;28;20036;-80
2022/10/01 10:13:39;;;;;;;10.35;1.95;;;14.60;99.90;;;;;;5093546;28;20052;-80
2022/10/01 10:16:19;;;;;;;6.25;1.20;;;14.40;99.90;;;;;;5077095;28;20036;-82
2022/10/01 10:18:50;;;;;;;5.18;1.13;;;14.10;99.90;;;;;;5094607;28;20044;-80
2022/10/01 10:21:20;;;;;;;4.55;0.90;;;13.70;99.90;;;;;;5077330;28;20123;-79
2022/10/01 10:23:51;;;;;;;1.58;0.50;;;13.40;99.90;;;;;;5093880;28;20047;-82
2022/10/01 10:26:20;;;;;;;4.32;0.60;;;13.00;99.90;;;;;;5093634;28;20036;-80
2022/10/01 10:28:46;;;;;;;3.22;0.60;;;12.80;99.90;;;;;;5093972;28;20067;-81
2022/10/01 10:31:21;;;;;;;3.03;1.20;;;12.70;99.90;;;;;;5076840;28;20501;-80
2022/10/01 10:34:04;;;;;;;2.40;0.63;;;12.80;99.90;;;;;;5093933;28;20040;-80
2022/10/01 10:36:33;;;;;;;1.85;1.00;;;12.90;99.90;;;;;;5094047;28;20044;-80
2022/10/01 10:39:00;;;;;;;4.78;1.15;;;13.20;99.90;;;;;;5093931;28;20047;-80
2022/10/01 10:41:27;;;;;;;3.50;0.73;;;13.50;99.90;;;;;;5093620;28;20124;-80
2022/10/01 10:44:05;;;;;;;4.13;0.88;;;13.90;99.90;;;;;;5093643;28;20051;-80
2022/10/01 10:46:34;;;;;;;4.30;1.00;;;14.10;99.90;;;;;;5093826;28;20048;-79
2022/10/01 10:49:28;;;;;;;5.85;1.35;;;14.30;99.90;;;;;;5093232;28;20036;-80
2022/10/01 10:51:55;;;;;;;4.63;1.30;;;14.60;99.90;;;;;;5093224;28;20043;-80
2022/10/01 10:54:30;;;;;;;7.60;1.33;;;14.80;99.90;;;;;;5092971;28;20502;-79
2022/10/01 10:57:01;;;;;;;8.00;1.60;;;15.10;99.90;;;;;;5075333;28;20043;-80
2022/10/01 10:59:31;;;;;;;5.22;1.00;;;15.10;99.90;;;;;;5092769;28;20397;-81
2022/10/01 11:02:01;;;;;;;6.57;1.48;;;15.10;99.90;;;;;;5093061;28;20036;-80
2022/10/01 11:04:40;;;;;;;6.80;1.45;;;14.90;99.90;;;;;;5092470;28;20044;-81
2022/10/01 11:07:06;;;;;;;7.13;1.40;;;14.80;99.90;;;;;;5092139;28;20411;-80
2022/10/01 11:09:46;;;;;;;4.47;1.00;;;14.70;99.90;;;;;;5093745;28;20123;-81
2022/10/01 11:12:29;;;;;;;6.10;1.35;;;14.60;99.90;;;;;;5093520;28;20071;-80
2022/10/01 11:15:25;;;;;;;8.07;1.58;;;14.60;99.90;;;;;;5093302;28;20045;-80
2022/10/01 11:17:59;;;;;;;5.93;1.50;;;14.70;99.90;;;;;;5093384;28;20112;-80
2022/10/01 11:20:49;;;;;;;9.50;1.70;;;14.70;99.90;;;;;;5093738;28;20040;-79
2022/10/01 11:23:52;;;;;;;9.20;1.38;;;14.80;99.90;;;;;;5093103;28;20656;-81
2022/10/01 11:26:42;;;;;;;6.07;1.50;;;15.10;99.90;;;;;;5092925;28;20040;-80
2022/10/01 11:29:19;;;;;;;8.85;1.52;;;15.30;99.90;;;;;;5092711;28;20040;-80
2022/10/01 11:31:49;;;;;;;6.57;1.48;;;15.50;99.90;;;;;;5091970;28;20036;-79
2022/10/01 11:34:38;;;;;;;6.25;1.60;;;15.70;99.90;;;;;;5091554;28;20046;-79
2022/10/01 11:37:09;;;;;;;13.85;2.08;;;15.80;99.90;;;;;;5073809;28;20052;-79
2022/10/01 11:39:39;;;;;;;7.88;1.55;;;16.00;99.90;;;;;;5073981;28;20040;-79
2022/10/01 11:42:09;;;;;;;7.43;1.73;;;16.30;99.90;;;;;;5090356;28;20404;-78
2022/10/01 11:44:45;;;;;;;12.20;2.03;;;16.40;99.90;;;;;;5091607;28;20039;-80
2022/10/01 11:47:19;;;;;;;10.18;2.22;;;16.40;99.90;;;;;;5091352;28;20123;-79
2022/10/01 11:50:03;;;;;;;10.55;1.73;;;16.60;99.90;;;;;;5091737;28;20633;-78
2022/10/01 11:52:45;;;;;;;10.23;1.95;;;16.60;99.90;;;;;;5073929;28;20039;-78
2022/10/01 11:58:51;;;;;;;15.30;1.92;;;16.50;99.90;;;;;;5091073;28;20040;-79
2022/10/01 12:01:23;;;;;;;7.38;1.50;;;16.50;99.90;;;;;;5091200;28;20032;-78
2022/10/01 12:03:51;;;;;;;8.70;1.58;;;16.50;99.90;;;;;;5090863;28;20040;-79
2022/10/01 12:06:36;;;;;;;8.52;2.05;;;16.50;99.90;;;;;;5074368;28;20038;-79
2022/10/01 12:09:09;;;;;;;11.27;1.95;;;16.50;99.90;;;;;;5091638;28;20047;-78
2022/10/01 12:11:51;;;;;;;11.13;1.90;;;16.40;99.90;;;;;;5091050;28;20560;-78
2022/10/01 12:14:30;;;;;;;7.85;1.70;;;16.30;99.90;;;;;;5091170;28;20036;-78
2022/10/01 12:16:57;;;;;;;8.23;1.80;;;16.20;99.90;;;;;;5090763;28;20044;-78
2022/10/01 12:19:28;;;;;;;9.68;1.60;;;16.10;99.90;;;;;;5091049;28;20044;-78
2022/10/01 12:22:15;;;;;;;8.50;2.10;;;16.10;99.90;;;;;;5089828;28;20044;-78
2022/10/01 12:24:44;;;;;;;7.72;1.40;;;16.20;99.90;;;;;;5089372;28;20079;-78
2022/10/01 12:27:49;;;;;;;9.80;1.67;;;16.30;99.90;;;;;;5072861;28;20044;-78
2022/10/01 12:30:23;;;;;;;10.38;2.05;;;16.80;99.90;;;;;;5091007;28;20161;-78
2022/10/01 12:33:20;;;;;;;7.88;1.73;;;17.00;99.90;;;;;;5073753;28;20047;-78
2022/10/01 12:36:05;;;;;;;10.18;1.70;;;17.10;99.90;;;;;;5090991;28;20067;-79
2022/10/01 12:39:12;;;;;;;9.77;1.92;;;17.10;99.90;;;;;;5089639;28;20043;-78
2022/10/01 12:41:56;;;;;;;10.23;2.13;;;17.40;99.90;;;;;;5089453;28;20044;-79
2022/10/01 12:44:50;;;;;;;8.63;1.77;;;17.40;99.90;;;;;;5090588;28;20097;-78
2022/10/01 12:47:36;;;;;;;8.10;1.42;;;17.30;99.90;;;;;;5089536;28;20044;-79
2022/10/01 12:50:20;;;;;;;12.70;2.00;;;17.30;99.90;;;;;;5075210;28;20078;-79
2022/10/01 12:53:27;;;;;;;5.70;1.30;;;17.50;99.90;;;;;;5094683;28;20044;-80
2022/10/01 12:56:01;;;;;;;6.55;1.33;;;17.50;99.90;;;;;;5094653;28;20046;-77
2022/10/01 12:58:53;;;;;;;12.30;1.52;;;17.60;99.90;;;;;;5094804;28;20378;-78
2022/10/01 13:01:33;;;;;;;6.97;1.17;;;17.30;99.90;;;;;;5094425;28;20093;-78
2022/10/01 13:04:11;;;;;;;6.40;1.30;;;17.00;99.90;;;;;;5094440;28;20040;-79
2022/10/01 13:06:39;;;;;;;6.32;1.48;;;16.60;99.90;;;;;;5094412;28;20050;-79
2022/10/01 13:09:23;;;;;;;4.35;1.30;;;16.10;99.90;;;;;;5077607;28;20032;-77
2022/10/01 13:12:08;;;;;;;5.03;0.95;;;15.50;99.90;;;;;;5093124;28;20031;-78
2022/10/01 13:14:34;;;;;;;5.50;1.10;;;15.20;99.90;;;;;;5094536;28;20565;-78